createdAt,value
2022-08-09T00:01:49.412Z,25.80
2022-08-09T00:04:34.503Z,25.70
2022-08-09T00:07:10.420Z,25.70
2022-08-09T00:09:39.066Z,25.70
2022-08-09T00:12:15.534Z,25.70
2022-08-09T00:14:51.189Z,25.60
2022-08-09T00:18:06.203Z,25.60
2022-08-09T00:20:15.179Z,25.50
2022-08-09T00:22:44.909Z,25.50
2022-08-09T00:25:23.229Z,25.40
2022-08-09T00:27:56.465Z,25.40
2022-08-09T00:30:26.862Z,25.30
2022-08-09T00:32:55.266Z,25.30
2022-08-09T00:35:24.019Z,25.30
2022-08-09T00:37:52.339Z,25.30
2022-08-09T00:40:22.362Z,25.20
2022-08-09T00:44:14.250Z,25.20
2022-08-09T00:45:53.715Z,25.10
2022-08-09T00:48:22.458Z,25.10
2022-08-09T00:50:52.368Z,25.10
2022-08-09T00:53:24.295Z,25.00
2022-08-09T00:56:04.084Z,24.90
2022-08-09T00:58:36.348Z,24.90
2022-08-09T01:01:16.279Z,24.90
2022-08-09T01:03:56.843Z,24.80
2022-08-09T01:06:35.413Z,24.80
2022-08-09T01:09:36.887Z,24.80
2022-08-09T01:12:14.060Z,24.80
2022-08-09T01:14:52.662Z,24.70
2022-08-09T01:17:26.304Z,24.70
2022-08-09T01:20:03.390Z,24.60
2022-08-09T01:22:57.357Z,24.60
2022-08-09T01:25:48.847Z,24.60
2022-08-09T01:28:22.487Z,24.50
2022-08-09T01:30:59.331Z,24.50
2022-08-09T01:33:30.831Z,24.40
2022-08-09T01:36:04.343Z,24.40
2022-08-09T01:38:38.451Z,24.30
2022-08-09T01:41:14.647Z,24.30
2022-08-09T01:43:52.046Z,24.20
2022-08-09T01:46:26.304Z,24.20
2022-08-09T01:49:00.194Z,24.10
2022-08-09T01:51:42.753Z,24.00
2022-08-09T01:54:13.145Z,24.00
2022-08-09T01:56:43.973Z,23.90
2022-08-09T01:59:23.313Z,23.90
2022-08-09T02:01:59.461Z,23.90
2022-08-09T02:04:32.008Z,23.80
2022-08-09T02:07:18.299Z,23.80
2022-08-09T02:10:04.450Z,23.80
2022-08-09T02:12:35.883Z,23.80
2022-08-09T02:15:11.992Z,23.80
2022-08-09T02:18:01.329Z,23.80
2022-08-09T02:20:40.434Z,23.70
2022-08-09T02:23:13.774Z,23.70
2022-08-09T02:25:55.704Z,23.70
2022-08-09T02:28:28.850Z,23.70
2022-08-09T02:31:05.972Z,23.60
2022-08-09T02:34:06.375Z,23.60
2022-08-09T02:36:33.525Z,23.60
2022-08-09T02:39:06.660Z,23.60
2022-08-09T02:41:46.093Z,23.50
2022-08-09T02:44:28.992Z,23.50
2022-08-09T02:47:04.111Z,23.50
2022-08-09T02:49:38.321Z,23.50
2022-08-09T02:52:08.634Z,23.40
2022-08-09T02:54:54.119Z,23.40
2022-08-09T02:57:25.441Z,23.40
2022-08-09T03:00:21.241Z,23.30
2022-08-09T03:02:58.712Z,23.30
2022-08-09T03:05:29.909Z,23.30
2022-08-09T03:08:05.003Z,23.30
2022-08-09T03:10:34.066Z,23.30
2022-08-09T03:13:08.439Z,23.20
2022-08-09T03:15:40.589Z,23.20
2022-08-09T03:18:30.682Z,23.20
2022-08-09T03:21:01.711Z,23.20
2022-08-09T03:23:31.200Z,23.20
2022-08-09T03:26:03.487Z,23.20
2022-08-09T03:28:36.301Z,23.20
2022-08-09T03:31:10.339Z,23.20
2022-08-09T03:33:54.057Z,23.10
2022-08-09T03:36:27.262Z,23.10
2022-08-09T03:38:57.603Z,23.10
2022-08-09T03:41:44.679Z,23.00
2022-08-09T03:44:15.542Z,23.00
2022-08-09T03:46:44.208Z,23.00
2022-08-09T03:49:17.522Z,23.00
2022-08-09T03:51:58.213Z,22.90
2022-08-09T03:54:32.089Z,22.90
2022-08-09T03:57:04.353Z,22.80
2022-08-09T03:59:53.759Z,22.80
2022-08-09T04:02:27.029Z,22.80
2022-08-09T04:05:00.738Z,22.70
2022-08-09T04:07:47.508Z,22.70
2022-08-09T04:10:20.666Z,22.70
2022-08-09T04:12:51.549Z,22.70
2022-08-09T04:15:38.821Z,22.70
2022-08-09T04:18:16.754Z,22.60
2022-08-09T04:20:48.378Z,22.60
2022-08-09T04:23:17.751Z,22.60
2022-08-09T04:25:51.935Z,22.60
2022-08-09T04:28:33.428Z,22.60
2022-08-09T04:31:09.065Z,22.50
2022-08-09T04:33:47.141Z,22.50
2022-08-09T04:36:24.530Z,22.50
2022-08-09T04:38:52.840Z,22.50
2022-08-09T04:41:23.584Z,22.50
2022-08-09T04:44:06.816Z,22.40
2022-08-09T04:46:59.261Z,22.40
2022-08-09T04:49:53.319Z,22.40
2022-08-09T04:52:32.354Z,22.40
2022-08-09T04:55:04.608Z,22.50
2022-08-09T04:57:53.922Z,22.50
2022-08-09T05:00:25.021Z,22.50
2022-08-09T05:03:30.605Z,22.50
2022-08-09T05:05:51.816Z,22.50
2022-08-09T05:08:22.603Z,22.50
2022-08-09T05:10:56.809Z,22.50
2022-08-09T05:13:33.166Z,22.50
2022-08-09T05:16:02.668Z,22.50
2022-08-09T05:18:50.461Z,22.60
2022-08-09T05:21:24.547Z,22.60
2022-08-09T05:24:02.189Z,22.60
2022-08-09T05:26:45.284Z,22.60
2022-08-09T05:29:21.735Z,22.60
2022-08-09T05:31:57.414Z,22.60
2022-08-09T05:34:31.043Z,22.60
2022-08-09T05:37:01.620Z,22.60
2022-08-09T05:39:36.223Z,22.70
2022-08-09T05:42:17.707Z,22.60
2022-08-09T05:44:51.527Z,22.60
2022-08-09T05:47:21.497Z,22.60
2022-08-09T05:50:35.032Z,22.70
2022-08-09T05:52:39.240Z,22.70
2022-08-09T05:55:09.844Z,22.70
2022-08-09T05:57:50.839Z,22.70
2022-08-09T06:00:26.299Z,22.70
2022-08-09T06:02:57.344Z,22.80
2022-08-09T06:05:49.799Z,22.80
2022-08-09T06:08:19.138Z,22.80
2022-08-09T06:10:55.052Z,22.80
2022-08-09T06:13:24.200Z,22.80
2022-08-09T06:15:53.592Z,22.90
2022-08-09T06:18:24.768Z,22.90
2022-08-09T06:20:57.859Z,22.90
2022-08-09T06:23:58.662Z,22.90
2022-08-09T06:26:20.517Z,23.00
2022-08-09T06:29:01.103Z,23.00
2022-08-09T06:31:40.390Z,23.00
2022-08-09T06:34:22.423Z,23.00
2022-08-09T06:36:57.347Z,23.10
2022-08-09T06:39:48.721Z,23.10
2022-08-09T06:42:19.840Z,23.10
2022-08-09T06:44:54.080Z,23.20
2022-08-09T06:47:23.660Z,23.20
2022-08-09T06:50:14.076Z,23.20
2022-08-09T06:52:47.280Z,23.20
2022-08-09T06:55:23.362Z,23.30
2022-08-09T06:58:02.676Z,23.30
2022-08-09T07:00:54.832Z,23.40
2022-08-09T07:03:27.002Z,23.50
2022-08-09T07:06:04.710Z,23.50
2022-08-09T07:08:34.593Z,23.60
2022-08-09T07:11:06.929Z,23.60
2022-08-09T07:13:45.283Z,23.60
2022-08-09T07:16:41.951Z,23.70
2022-08-09T07:19:23.113Z,23.70
2022-08-09T07:21:56.957Z,23.80
2022-08-09T07:24:31.935Z,23.80
2022-08-09T07:27:11.155Z,23.80
2022-08-09T07:29:58.484Z,23.90
2022-08-09T07:32:32.563Z,23.90
2022-08-09T07:35:07.796Z,24.00
2022-08-09T07:37:42.834Z,24.00
2022-08-09T07:40:16.771Z,24.10
2022-08-09T07:42:54.912Z,24.10
2022-08-09T07:45:39.983Z,24.20
2022-08-09T07:48:28.836Z,24.20
2022-08-09T07:51:09.865Z,24.20
2022-08-09T07:54:07.836Z,24.30
2022-08-09T07:56:45.026Z,24.30
2022-08-09T07:59:24.931Z,24.40
2022-08-09T08:01:56.266Z,24.40
2022-08-09T08:04:31.879Z,24.40
2022-08-09T08:07:09.373Z,24.50
2022-08-09T08:09:55.080Z,24.50
2022-08-09T08:12:43.840Z,24.50
2022-08-09T08:15:14.346Z,24.60
2022-08-09T08:17:53.507Z,24.60
2022-08-09T08:20:28.876Z,24.70
2022-08-09T08:23:03.419Z,24.80
2022-08-09T08:25:44.059Z,24.80
2022-08-09T08:28:15.181Z,24.80
2022-08-09T08:30:43.864Z,24.90
2022-08-09T08:33:22.908Z,24.90
2022-08-09T08:35:58.997Z,25.00
2022-08-09T08:38:28.655Z,25.00
2022-08-09T08:40:58.024Z,25.00
2022-08-09T08:43:28.102Z,25.10
2022-08-09T08:46:09.834Z,25.10
2022-08-09T08:48:53.561Z,25.10
2022-08-09T08:51:23.127Z,25.20
2022-08-09T08:54:03.700Z,25.20
2022-08-09T08:56:36.115Z,25.20
2022-08-09T08:59:19.416Z,25.30
2022-08-09T09:01:52.838Z,25.30
2022-08-09T09:04:29.844Z,25.40
2022-08-09T09:07:05.682Z,25.40
2022-08-09T09:10:01.676Z,25.40
2022-08-09T09:12:31.366Z,25.50
2022-08-09T09:15:05.630Z,25.50
2022-08-09T09:17:49.501Z,25.50
2022-08-09T09:20:23.063Z,25.60
2022-08-09T09:22:56.188Z,25.60
2022-08-09T09:26:04.472Z,25.60
2022-08-09T09:29:02.451Z,25.70
2022-08-09T09:32:04.109Z,25.70
2022-08-09T09:34:14.198Z,25.80
2022-08-09T09:36:53.356Z,25.80
2022-08-09T09:39:25.856Z,25.90
2022-08-09T09:42:25.388Z,25.90
2022-08-09T09:44:59.483Z,25.90
2022-08-09T09:47:29.867Z,26.00
2022-08-09T09:50:15.365Z,26.00
2022-08-09T09:52:56.095Z,26.00
2022-08-09T09:55:32.089Z,26.10
2022-08-09T09:58:15.605Z,26.10
2022-08-09T10:00:54.045Z,26.20
2022-08-09T10:03:57.524Z,26.20
2022-08-09T10:06:32.149Z,26.30
2022-08-09T10:09:21.764Z,26.30
2022-08-09T10:12:12.205Z,26.40
2022-08-09T10:14:48.411Z,26.40
2022-08-09T10:17:39.524Z,26.50
2022-08-09T10:20:27.171Z,26.50
2022-08-09T10:23:17.298Z,26.60
2022-08-09T10:26:06.554Z,26.70
2022-08-09T10:28:40.141Z,26.80
2022-08-09T10:32:28.302Z,26.90
2022-08-09T10:34:09.087Z,27.00
2022-08-09T10:36:40.062Z,27.20
2022-08-09T10:39:15.688Z,27.30
2022-08-09T10:41:45.939Z,27.40
2022-08-09T10:44:19.455Z,27.50
2022-08-09T10:48:12.458Z,27.60
2022-08-09T10:50:15.035Z,27.80
2022-08-09T10:53:10.548Z,27.90
2022-08-09T10:55:58.402Z,28.10
2022-08-09T10:58:34.726Z,28.20
2022-08-09T11:03:02.560Z,28.40
2022-08-09T11:04:30.261Z,28.50
2022-08-09T11:07:55.828Z,28.70
2022-08-09T11:10:18.569Z,28.80
2022-08-09T11:13:53.821Z,29.00
2022-08-09T11:16:35.679Z,29.10
2022-08-09T11:19:09.478Z,29.30
2022-08-09T11:21:56.804Z,29.40
2022-08-09T11:24:26.762Z,29.60
2022-08-09T11:26:58.616Z,29.70
2022-08-09T11:30:04.027Z,29.80
2022-08-09T11:32:47.092Z,29.90
2022-08-09T11:35:18.485Z,30.10
2022-08-09T11:37:49.794Z,30.20
2022-08-09T11:40:29.897Z,30.30
2022-08-09T11:43:01.441Z,30.40
2022-08-09T11:45:37.885Z,30.50
2022-08-09T11:48:31.806Z,30.60
2022-08-09T11:51:38.209Z,30.70
2022-08-09T11:54:27.908Z,30.80
2022-08-09T11:57:47.592Z,31.00
2022-08-09T12:00:30.815Z,31.10
2022-08-09T12:03:31.771Z,31.30
2022-08-09T12:05:52.873Z,31.40
2022-08-09T12:08:23.441Z,31.50
2022-08-09T12:10:55.894Z,31.60
2022-08-09T12:14:07.078Z,31.70
2022-08-09T12:16:30.847Z,31.80
2022-08-09T12:19:09.321Z,31.90
2022-08-09T12:21:50.212Z,32.00
2022-08-09T12:24:24.048Z,32.10
2022-08-09T12:28:58.591Z,32.20
2022-08-09T12:30:01.898Z,32.40
2022-08-09T12:32:45.619Z,32.50
2022-08-09T12:35:21.729Z,32.60
2022-08-09T12:37:51.987Z,32.70
2022-08-09T12:40:23.060Z,32.80
2022-08-09T12:42:53.056Z,32.90
2022-08-09T12:45:32.484Z,33.10
2022-08-09T12:48:04.415Z,33.10
2022-08-09T12:50:33.514Z,33.20
2022-08-09T12:53:09.329Z,33.40
2022-08-09T12:56:15.384Z,33.50
2022-08-09T12:58:42.845Z,33.60
2022-08-09T13:01:26.775Z,33.70
2022-08-09T13:03:59.723Z,33.80
2022-08-09T13:06:34.063Z,33.90
2022-08-09T13:09:08.891Z,34.00
2022-08-09T13:11:42.460Z,34.10
2022-08-09T13:14:41.459Z,34.20
2022-08-09T13:17:08.341Z,34.20
2022-08-09T13:20:09.336Z,34.40
2022-08-09T13:22:37.550Z,34.40
2022-08-09T13:25:18.823Z,34.50
2022-08-09T13:27:48.668Z,34.70
2022-08-09T13:30:51.316Z,34.70
2022-08-09T13:33:22.809Z,34.80
2022-08-09T13:36:39.816Z,35.00
2022-08-09T13:38:57.434Z,35.10
2022-08-09T13:41:58.907Z,35.20
2022-08-09T13:44:17.826Z,35.30
2022-08-09T13:47:25.324Z,35.50
2022-08-09T13:49:39.530Z,35.50
2022-08-09T13:52:18.584Z,35.60
2022-08-09T13:55:00.115Z,35.70
2022-08-09T13:57:39.541Z,35.80
2022-08-09T14:00:12.813Z,35.80
2022-08-09T14:03:03.365Z,35.90
2022-08-09T14:05:56.878Z,36.00
2022-08-09T14:08:20.717Z,36.00
2022-08-09T14:10:51.904Z,36.10
2022-08-09T14:14:15.833Z,36.10
2022-08-09T14:16:15.618Z,36.20
2022-08-09T14:18:49.589Z,36.20
2022-08-09T14:21:21.076Z,36.20
2022-08-09T14:23:53.730Z,36.20
2022-08-09T14:26:25.318Z,36.20
2022-08-09T14:29:01.039Z,36.20
2022-08-09T14:31:35.900Z,36.10
2022-08-09T14:34:27.465Z,36.10
2022-08-09T14:37:02.693Z,36.10
2022-08-09T14:39:45.373Z,36.10
2022-08-09T14:42:28.797Z,36.00
2022-08-09T14:46:39.116Z,36.00
2022-08-09T14:47:58.843Z,36.00
2022-08-09T14:50:31.296Z,35.90
2022-08-09T14:53:01.115Z,35.90
2022-08-09T14:55:32.787Z,35.80
2022-08-09T14:58:03.670Z,35.70
2022-08-09T15:00:36.605Z,35.70
2022-08-09T15:03:07.722Z,35.60
2022-08-09T15:05:37.925Z,35.50
2022-08-09T15:08:06.678Z,35.40
2022-08-09T15:10:39.127Z,35.30
2022-08-09T15:13:08.717Z,35.20
2022-08-09T15:15:39.692Z,35.20
2022-08-09T15:18:12.480Z,35.10
2022-08-09T15:21:54.651Z,35.10
2022-08-09T15:24:01.044Z,34.90
2022-08-09T15:26:31.823Z,34.90
2022-08-09T15:29:04.471Z,34.80
2022-08-09T15:31:41.337Z,34.60
2022-08-09T15:34:33.344Z,34.60
2022-08-09T15:37:00.108Z,34.50
2022-08-09T15:39:34.559Z,34.50
2022-08-09T15:42:19.108Z,34.50
2022-08-09T15:44:47.889Z,34.40
2022-08-09T15:47:21.696Z,34.40
2022-08-09T15:50:04.234Z,34.40
2022-08-09T15:52:34.225Z,34.40
2022-08-09T15:55:04.001Z,34.40
2022-08-09T15:57:35.573Z,34.50
2022-08-09T16:00:21.904Z,34.50
2022-08-09T16:02:57.160Z,34.50
2022-08-09T16:05:47.712Z,34.50
2022-08-09T16:08:30.379Z,34.50
2022-08-09T16:11:01.641Z,34.50
2022-08-09T16:14:03.928Z,34.50
2022-08-09T16:16:19.682Z,34.40
2022-08-09T16:18:49.912Z,34.50
2022-08-09T16:21:25.222Z,34.50
2022-08-09T16:23:55.614Z,34.50
2022-08-09T16:26:33.871Z,34.60
2022-08-09T16:29:05.997Z,34.60
2022-08-09T16:32:18.667Z,34.60
2022-08-09T16:34:53.579Z,34.60
2022-08-09T16:37:55.931Z,34.60
2022-08-09T16:40:10.704Z,34.60
2022-08-09T16:42:45.006Z,34.60
2022-08-09T16:45:17.795Z,34.60
2022-08-09T16:48:41.192Z,34.60
2022-08-09T16:50:38.296Z,34.50
2022-08-09T16:53:08.719Z,34.50
2022-08-09T16:55:58.514Z,34.40
2022-08-09T16:58:26.148Z,34.30
2022-08-09T17:00:55.138Z,34.30
2022-08-09T17:03:23.776Z,34.20
2022-08-09T17:06:08.732Z,34.20
2022-08-09T17:09:02.890Z,34.10
2022-08-09T17:11:40.149Z,34.10
2022-08-09T17:14:25.857Z,34.00
2022-08-09T17:17:01.764Z,34.00
2022-08-09T17:20:11.125Z,34.00
2022-08-09T17:22:25.064Z,34.00
2022-08-09T17:25:03.388Z,33.90
2022-08-09T17:27:33.585Z,33.90
2022-08-09T17:30:06.971Z,33.90
2022-08-09T17:32:38.701Z,33.80
2022-08-09T17:35:12.212Z,33.80
2022-08-09T17:38:11.376Z,33.70
2022-08-09T17:40:33.460Z,33.70
2022-08-09T17:43:32.429Z,33.70
2022-08-09T17:46:03.039Z,33.60
2022-08-09T17:48:33.340Z,33.60
2022-08-09T17:51:10.340Z,33.50
2022-08-09T17:53:53.635Z,33.50
2022-08-09T17:56:27.403Z,33.40
2022-08-09T17:58:58.217Z,33.30
2022-08-09T18:02:03.430Z,33.20
2022-08-09T18:04:15.369Z,33.20
2022-08-09T18:06:54.282Z,33.10
2022-08-09T18:09:35.684Z,33.10
2022-08-09T18:12:17.259Z,33.00
2022-08-09T18:14:53.550Z,32.90
2022-08-09T18:17:27.432Z,32.80
2022-08-09T18:20:55.957Z,32.70
2022-08-09T18:23:05.718Z,32.60
2022-08-09T18:25:52.598Z,32.60
2022-08-09T18:30:39.094Z,32.50
2022-08-09T18:31:25.108Z,32.40
2022-08-09T18:34:01.469Z,32.40
2022-08-09T18:36:32.487Z,32.30
2022-08-09T18:39:06.045Z,32.20
2022-08-09T18:41:37.467Z,32.10
2022-08-09T18:44:13.379Z,32.00
2022-08-09T18:46:51.368Z,32.00
2022-08-09T18:49:32.253Z,31.90
2022-08-09T18:52:11.519Z,31.90
2022-08-09T18:54:49.774Z,31.70
2022-08-09T18:57:23.851Z,31.70
2022-08-09T18:59:57.639Z,31.60
2022-08-09T19:02:31.792Z,31.50
2022-08-09T19:05:03.906Z,31.40
2022-08-09T19:08:04.894Z,31.30
2022-08-09T19:10:37.408Z,31.30
2022-08-09T19:13:18.004Z,31.10
2022-08-09T19:15:52.493Z,31.10
2022-08-09T19:18:33.404Z,31.00
2022-08-09T19:21:05.620Z,31.00
2022-08-09T19:24:32.988Z,30.90
2022-08-09T19:26:29.495Z,30.80
2022-08-09T19:29:03.122Z,30.80
2022-08-09T19:31:45.643Z,30.70
2022-08-09T19:34:21.352Z,30.60
2022-08-09T19:36:52.301Z,30.60
2022-08-09T19:39:43.292Z,30.50
2022-08-09T19:42:10.873Z,30.50
2022-08-09T19:44:50.598Z,30.40
2022-08-09T19:47:23.730Z,30.40
2022-08-09T19:50:10.485Z,30.30
2022-08-09T19:52:49.394Z,30.20
2022-08-09T19:55:25.835Z,30.20
2022-08-09T19:57:59.957Z,30.10
2022-08-09T20:00:29.982Z,30.10
2022-08-09T20:04:12.548Z,30.00
2022-08-09T20:05:50.603Z,30.00
2022-08-09T20:08:24.814Z,29.90
2022-08-09T20:11:02.728Z,29.80
2022-08-09T20:13:37.198Z,29.80
2022-08-09T20:16:33.947Z,29.80
2022-08-09T20:19:42.420Z,29.70
2022-08-09T20:21:56.473Z,29.70
2022-08-09T20:24:29.598Z,29.60
2022-08-09T20:27:08.210Z,29.60
2022-08-09T20:29:38.660Z,29.60
2022-08-09T20:32:29.291Z,29.50
2022-08-09T20:34:58.307Z,29.40
2022-08-09T20:37:37.090Z,29.40
2022-08-09T20:40:26.451Z,29.40
2022-08-09T20:42:59.816Z,29.30
2022-08-09T20:45:59.794Z,29.30
2022-08-09T20:48:21.185Z,29.20
2022-08-09T20:50:55.675Z,29.20
2022-08-09T20:53:36.220Z,29.10
2022-08-09T20:56:09.012Z,29.10
2022-08-09T20:58:38.300Z,29.00
2022-08-09T21:01:32.777Z,29.00
2022-08-09T21:05:49.564Z,28.90
2022-08-09T21:06:51.154Z,28.90
2022-08-09T21:09:32.669Z,28.80
2022-08-09T21:14:41.609Z,28.70
2022-08-09T21:18:11.623Z,28.70
2022-08-09T21:20:18.051Z,28.70
2022-08-09T21:22:52.579Z,28.60
2022-08-09T21:25:44.502Z,28.60
2022-08-09T21:28:33.411Z,28.50
2022-08-09T21:31:17.343Z,28.40
2022-08-09T21:33:51.251Z,28.40
2022-08-09T21:36:25.917Z,28.30
2022-08-09T21:38:57.226Z,28.30
2022-08-09T21:42:00.179Z,28.20
2022-08-09T21:44:34.006Z,28.10
2022-08-09T21:47:05.539Z,28.10
2022-08-09T21:49:39.699Z,28.00
2022-08-09T21:52:14.882Z,28.00
2022-08-09T21:54:53.669Z,27.90
2022-08-09T21:57:38.519Z,27.90
2022-08-09T22:00:25.520Z,27.80
2022-08-09T22:02:58.849Z,27.80
2022-08-09T22:05:35.715Z,27.70
2022-08-09T22:08:13.833Z,27.70
2022-08-09T22:11:05.040Z,27.60
2022-08-09T22:13:34.564Z,27.60
2022-08-09T22:16:07.919Z,27.50
2022-08-09T22:18:37.868Z,27.50
2022-08-09T22:21:09.714Z,27.40
2022-08-09T22:23:59.422Z,27.40
2022-08-09T22:26:34.219Z,27.30
2022-08-09T22:29:07.270Z,27.20
2022-08-09T22:31:36.257Z,27.20
2022-08-09T22:34:14.512Z,27.10
2022-08-09T22:36:46.020Z,27.10
2022-08-09T22:39:20.830Z,27.00
2022-08-09T22:42:21.548Z,27.00
2022-08-09T22:48:05.044Z,26.90
2022-08-09T22:48:11.471Z,26.80
2022-08-09T22:50:30.203Z,26.80
2022-08-09T22:52:58.943Z,26.80
2022-08-09T22:55:39.489Z,26.80
2022-08-09T22:58:30.758Z,26.80
2022-08-09T23:01:02.602Z,26.70
2022-08-09T23:04:04.111Z,26.70
2022-08-09T23:06:32.811Z,26.60
2022-08-09T23:09:04.570Z,26.60
2022-08-09T23:11:34.599Z,26.50
2022-08-09T23:14:03.860Z,26.50
2022-08-09T23:16:32.969Z,26.40
2022-08-09T23:19:01.561Z,26.30
2022-08-09T23:21:33.475Z,26.30
2022-08-09T23:24:06.242Z,26.20
2022-08-09T23:26:36.855Z,26.20
2022-08-09T23:29:06.146Z,26.20
2022-08-09T23:31:35.005Z,26.10
2022-08-09T23:34:03.844Z,26.10
2022-08-09T23:36:33.375Z,26.10
2022-08-09T23:39:01.772Z,26.10
2022-08-09T23:41:30.092Z,26.10
2022-08-09T23:44:01.332Z,26.00
2022-08-09T23:46:31.087Z,26.00
2022-08-09T23:49:00.077Z,26.00
2022-08-09T23:51:29.205Z,25.90
2022-08-09T23:54:02.243Z,25.90
2022-08-09T23:56:53.013Z,25.80
2022-08-09T23:59:21.507Z,25.80
